Cavalier, North Dakota
Current Conditions -  °F | °C
As of 2:15 PM on Monday 24 Nov 2014 (Local Time) from K2C8 Reporting Station
Clear Clear  
Wind Chill:   Ceiling: Unl
Heat Index: 16°   Visibility: 10mi
Dew Point:   Wind: 17mph
Humidity: 68%   Direction: 340°NNW
Pressure: 29.89"   Gusts: 26mph
Location:  48.79°N, 97.62°W
Report Text: K2C8 242015Z AUTO 34015G23KT 10SM CLR M09/M14 A2989 RMK AO2
Loading
Personal Weather Stations






























Interactive Weather Map New forecast layout! Learn more

10-Day Weather Forecast

Advertisements
Track Severe Weather on mobile